Time;durP1;ratioP1;P1;durP2;ratioP2;P2;SDS_P1;SDS_P2;PMS_P1;PMS_P2;Temp;Humidity;BMP_temperature;BMP_pressure;BME280_temperature;BME280_humidity;BME280_pressure;Samples;Min_cycle;Max_cycle;Signal;HPM_P1;HPM_P2
2022/10/29 00:00:28;;;;;;;13.37;4.30;;;19.70;71.10;;;;;;5047656;28;20185;-58
2022/10/29 00:02:54;;;;;;;7.10;5.07;;;19.80;70.60;;;;;;5038045;28;20312;-58
2022/10/29 00:05:19;;;;;;;5.30;4.43;;;20.00;69.90;;;;;;5036549;28;20192;-58
2022/10/29 00:07:45;;;;;;;10.53;5.57;;;20.00;68.70;;;;;;5043059;28;20204;-58
2022/10/29 00:10:11;;;;;;;9.03;4.60;;;19.80;69.50;;;;;;5044917;28;20277;-57
2022/10/29 00:12:36;;;;;;;8.60;4.93;;;19.80;69.30;;;;;;5039855;28;20204;-57
2022/10/29 00:15:03;;;;;;;8.03;5.00;;;19.90;69.40;;;;;;5026427;28;20193;-58
2022/10/29 00:17:29;;;;;;;7.37;4.90;;;19.90;68.10;;;;;;5038229;28;20643;-58
2022/10/29 00:19:54;;;;;;;8.53;4.97;;;20.00;68.40;;;;;;5039608;28;20439;-58
2022/10/29 00:22:20;;;;;;;8.00;4.60;;;20.10;67.90;;;;;;5043915;28;20205;-57
2022/10/29 00:24:45;;;;;;;5.33;4.23;;;20.00;67.10;;;;;;5046762;28;20934;-58
2022/10/29 00:27:11;;;;;;;8.70;4.43;;;19.90;67.50;;;;;;5048584;28;20559;-58
2022/10/29 00:29:37;;;;;;;9.10;4.63;;;19.90;67.40;;;;;;5046454;28;20199;-58
2022/10/29 00:32:02;;;;;;;7.80;5.20;;;19.90;67.60;;;;;;5042831;28;20196;-58
2022/10/29 00:34:28;;;;;;;12.30;4.93;;;19.90;67.50;;;;;;5042814;28;20200;-58
2022/10/29 00:36:54;;;;;;;8.73;4.80;;;19.70;67.20;;;;;;5045480;28;20224;-58
2022/10/29 00:39:19;;;;;;;14.57;7.30;;;19.80;67.70;;;;;;5043944;28;20223;-58
2022/10/29 00:41:45;;;;;;;7.57;5.00;;;19.80;67.40;;;;;;5048472;28;20185;-58
2022/10/29 00:44:13;;;;;;;6.63;4.60;;;19.90;67.30;;;;;;5042000;28;20936;-58
2022/10/29 00:46:42;;;;;;;7.50;4.80;;;20.00;66.40;;;;;;5043638;28;20193;-58
2022/10/29 00:49:08;;;;;;;7.53;4.57;;;20.10;65.90;;;;;;5042195;28;20890;-57
2022/10/29 00:51:35;;;;;;;11.80;5.20;;;20.20;65.60;;;;;;5050011;28;20956;-58
2022/10/29 00:54:05;;;;;;;9.97;5.03;;;20.20;65.30;;;;;;5044771;28;20446;-58
2022/10/29 00:56:35;;;;;;;7.20;4.90;;;20.20;65.00;;;;;;5045435;28;20860;-58
2022/10/29 00:59:01;;;;;;;8.37;4.23;;;20.00;64.90;;;;;;5043885;28;20439;-58
2022/10/29 01:01:27;;;;;;;9.70;5.23;;;19.90;66.20;;;;;;5039359;28;20444;-58
2022/10/29 01:03:54;;;;;;;11.93;4.50;;;19.80;66.90;;;;;;5038105;28;20501;-58
2022/10/29 01:06:21;;;;;;;7.53;4.33;;;19.70;66.80;;;;;;5045570;28;20192;-58
2022/10/29 01:08:46;;;;;;;9.03;4.73;;;19.80;67.90;;;;;;5042866;28;20450;-58
2022/10/29 01:11:31;;;;;;;6.67;4.57;;;19.90;67.10;;;;;;5042931;28;20438;-58
2022/10/29 01:14:11;;;;;;;6.93;4.43;;;19.70;66.40;;;;;;5040754;28;20216;-58
2022/10/29 01:17:15;;;;;;;7.47;5.20;;;19.60;67.60;;;;;;5040610;28;20533;-58
2022/10/29 01:19:40;;;;;;;9.57;4.10;;;19.40;67.60;;;;;;5041845;28;20508;-58
2022/10/29 01:22:23;;;;;;;8.70;5.40;;;19.40;68.10;;;;;;5043670;28;20451;-58
2022/10/29 01:25:13;;;;;;;7.70;4.50;;;19.60;67.70;;;;;;5038497;28;20220;-57
2022/10/29 01:27:45;;;;;;;8.10;4.70;;;19.60;67.50;;;;;;5043969;28;20522;-58
2022/10/29 01:30:17;;;;;;;10.20;4.50;;;19.70;67.20;;;;;;5043687;28;20510;-58
2022/10/29 01:32:52;;;;;;;4.70;3.70;;;19.70;66.50;;;;;;5040430;28;20439;-58
2022/10/29 01:35:30;;;;;;;6.83;3.90;;;19.70;67.00;;;;;;5043095;28;20435;-58
2022/10/29 01:38:06;;;;;;;11.57;4.40;;;19.60;67.30;;;;;;5036365;28;20817;-58
2022/10/29 01:40:57;;;;;;;8.37;4.97;;;19.60;67.30;;;;;;5039588;28;20454;-57
2022/10/29 01:43:33;;;;;;;11.53;4.67;;;19.50;67.50;;;;;;5041175;28;20562;-58
2022/10/29 01:46:22;;;;;;;7.60;4.20;;;19.50;67.70;;;;;;5042601;28;20447;-58
2022/10/29 01:48:53;;;;;;;8.00;3.90;;;19.40;67.60;;;;;;5039659;28;20451;-58
2022/10/29 01:51:26;;;;;;;7.50;4.30;;;19.20;68.00;;;;;;5043674;28;20454;-58
2022/10/29 01:53:53;;;;;;;6.50;4.20;;;19.00;68.90;;;;;;5041659;28;20552;-58
2022/10/29 01:56:18;;;;;;;6.33;5.67;;;19.00;69.10;;;;;;5040104;28;20447;-58
2022/10/29 01:58:50;;;;;;;10.47;4.53;;;19.20;68.80;;;;;;5042400;28;20446;-58
2022/10/29 02:01:34;;;;;;;6.57;4.03;;;19.40;68.10;;;;;;5042850;28;21011;-58
2022/10/29 02:04:06;;;;;;;10.10;4.53;;;19.30;67.50;;;;;;5045887;28;22595;-57
2022/10/29 02:06:43;;;;;;;7.87;4.23;;;19.10;68.70;;;;;;5046810;28;20447;-58
2022/10/29 02:09:22;;;;;;;11.03;4.93;;;19.20;68.30;;;;;;5044695;28;20439;-58
2022/10/29 02:11:57;;;;;;;5.90;3.90;;;19.30;68.00;;;;;;5041384;28;20446;-58
2022/10/29 02:14:34;;;;;;;9.70;4.30;;;19.30;67.50;;;;;;5046757;28;20466;-58
2022/10/29 02:17:01;;;;;;;5.57;4.20;;;19.40;67.20;;;;;;5042711;28;20492;-57
2022/10/29 02:19:32;;;;;;;13.00;4.83;;;19.40;66.80;;;;;;5042493;28;20449;-58
2022/10/29 02:21:57;;;;;;;5.70;4.30;;;19.40;66.70;;;;;;5050449;28;20969;-57
2022/10/29 02:24:26;;;;;;;12.20;4.43;;;19.50;66.20;;;;;;5046464;28;20490;-58
2022/10/29 02:26:52;;;;;;;5.87;4.00;;;19.40;66.40;;;;;;5044076;28;20188;-58
2022/10/29 02:29:18;;;;;;;6.67;4.27;;;19.20;66.90;;;;;;5044982;28;20443;-58
2022/10/29 02:31:44;;;;;;;10.47;4.13;;;19.20;67.00;;;;;;5041625;28;20435;-58
2022/10/29 02:34:09;;;;;;;8.90;4.80;;;19.20;66.40;;;;;;5047166;28;20326;-58
2022/10/29 02:36:35;;;;;;;8.87;3.73;;;19.30;66.50;;;;;;5043369;28;20553;-57
2022/10/29 02:39:01;;;;;;;7.93;4.40;;;19.40;66.20;;;;;;5047181;28;20188;-58
2022/10/29 02:41:26;;;;;;;8.57;4.10;;;19.50;65.70;;;;;;5048869;28;20649;-57
2022/10/29 02:43:52;;;;;;;7.20;3.80;;;19.50;66.20;;;;;;5045622;28;20232;-57
2022/10/29 02:46:20;;;;;;;13.70;5.00;;;19.50;65.20;;;;;;5045386;28;20283;-58
2022/10/29 02:48:46;;;;;;;6.93;4.30;;;19.60;65.60;;;;;;5041947;28;20207;-58
2022/10/29 02:51:12;;;;;;;5.83;3.70;;;19.50;65.40;;;;;;5046233;28;20447;-57
2022/10/29 02:53:38;;;;;;;9.20;4.07;;;19.40;66.00;;;;;;5044279;28;20500;-57
2022/10/29 02:56:05;;;;;;;6.30;4.10;;;19.50;66.60;;;;;;5043180;28;20440;-57
2022/10/29 02:58:30;;;;;;;9.87;3.87;;;19.60;66.20;;;;;;5039623;28;20199;-57
2022/10/29 03:00:56;;;;;;;10.00;4.50;;;19.60;66.50;;;;;;5048125;28;20447;-57
2022/10/29 03:03:22;;;;;;;5.17;3.60;;;19.50;66.20;;;;;;5049206;28;20656;-57
2022/10/29 03:05:47;;;;;;;7.77;4.70;;;19.50;66.80;;;;;;5043803;28;20200;-57
2022/10/29 03:08:13;;;;;;;14.27;4.57;;;19.40;66.80;;;;;;5048240;28;20463;-57
2022/10/29 03:10:38;;;;;;;10.27;3.80;;;19.40;66.60;;;;;;5046941;28;20190;-57
2022/10/29 03:13:04;;;;;;;9.30;4.10;;;19.50;67.20;;;;;;5046470;28;20207;-57
2022/10/29 03:15:29;;;;;;;7.13;3.80;;;19.60;66.70;;;;;;5041902;28;20206;-57
2022/10/29 03:17:55;;;;;;;8.93;4.50;;;19.50;66.30;;;;;;5047801;28;20189;-57
2022/10/29 03:20:21;;;;;;;6.27;4.07;;;19.60;66.80;;;;;;5043977;28;20264;-58
2022/10/29 03:22:46;;;;;;;4.60;4.07;;;19.70;66.60;;;;;;5043873;28;20196;-57
2022/10/29 03:25:12;;;;;;;4.97;4.47;;;19.80;66.30;;;;;;5042208;28;20581;-57
2022/10/29 03:27:44;;;;;;;5.10;4.53;;;19.80;66.20;;;;;;5041172;28;20239;-57
2022/10/29 03:30:12;;;;;;;11.33;4.23;;;19.90;65.20;;;;;;5048878;28;20561;-57
2022/10/29 03:32:45;;;;;;;8.00;4.57;;;19.90;65.40;;;;;;5046528;28;20450;-57
2022/10/29 03:35:14;;;;;;;6.87;4.23;;;19.90;65.00;;;;;;5042780;28;20457;-57
2022/10/29 03:37:39;;;;;;;10.70;5.70;;;20.00;64.60;;;;;;5048726;28;20459;-57
2022/10/29 03:40:06;;;;;;;8.17;4.37;;;20.10;64.30;;;;;;5044857;28;20484;-57
2022/10/29 03:42:31;;;;;;;10.47;5.03;;;20.10;63.60;;;;;;5043027;28;20208;-57
2022/10/29 03:45:00;;;;;;;7.73;4.50;;;20.00;64.00;;;;;;5041742;28;20444;-57
2022/10/29 03:47:27;;;;;;;8.40;3.97;;;20.00;63.80;;;;;;5044816;28;20192;-58
2022/10/29 03:49:53;;;;;;;8.70;3.80;;;20.00;63.80;;;;;;5034903;28;20519;-57
2022/10/29 03:52:19;;;;;;;4.47;4.07;;;20.00;64.20;;;;;;5044880;28;20965;-57
2022/10/29 03:54:44;;;;;;;5.90;4.23;;;19.80;65.20;;;;;;5040749;28;20456;-58
2022/10/29 03:57:10;;;;;;;9.17;4.90;;;19.50;66.10;;;;;;5039572;28;20702;-57
2022/10/29 03:59:35;;;;;;;5.83;4.40;;;19.50;65.80;;;;;;5044559;28;21887;-57
2022/10/29 04:02:01;;;;;;;9.00;4.20;;;19.50;66.00;;;;;;5033937;28;20212;-57
2022/10/29 04:04:27;;;;;;;6.10;4.10;;;19.50;65.90;;;;;;5042139;28;20235;-57
2022/10/29 04:06:52;;;;;;;5.50;4.13;;;19.50;65.90;;;;;;5040205;28;20292;-57
2022/10/29 04:09:18;;;;;;;12.93;5.17;;;19.60;66.40;;;;;;5046097;28;20193;-57
2022/10/29 04:11:43;;;;;;;7.47;4.20;;;19.70;66.10;;;;;;5043727;28;20208;-57
2022/10/29 04:14:09;;;;;;;9.97;4.13;;;19.70;66.00;;;;;;5046250;28;20866;-57
2022/10/29 04:16:35;;;;;;;10.17;4.90;;;19.70;66.20;;;;;;5046376;28;20203;-57
2022/10/29 04:19:01;;;;;;;9.93;4.20;;;19.80;65.70;;;;;;5044582;28;20284;-57
2022/10/29 04:21:26;;;;;;;5.43;4.10;;;19.90;65.50;;;;;;5026449;28;20851;-57
2022/10/29 04:23:52;;;;;;;9.27;4.47;;;19.90;65.50;;;;;;5044077;28;20228;-57
2022/10/29 04:26:17;;;;;;;6.63;4.10;;;19.80;65.20;;;;;;5041597;28;20196;-57
2022/10/29 04:28:46;;;;;;;6.80;4.40;;;19.70;65.90;;;;;;5040104;28;20554;-57
2022/10/29 04:31:12;;;;;;;8.47;4.00;;;19.80;65.90;;;;;;5045797;28;20192;-57
2022/10/29 04:33:38;;;;;;;5.80;4.50;;;19.90;65.70;;;;;;5045754;28;21016;-57
2022/10/29 04:36:04;;;;;;;10.93;4.80;;;19.90;64.70;;;;;;5045833;28;20447;-57
2022/10/29 04:38:30;;;;;;;5.60;4.17;;;19.80;64.90;;;;;;5047543;28;20232;-57
2022/10/29 04:40:59;;;;;;;9.53;4.57;;;19.80;64.90;;;;;;5047150;28;20434;-57
2022/10/29 04:43:25;;;;;;;11.13;5.17;;;19.70;64.40;;;;;;5040550;28;20317;-57
2022/10/29 04:45:53;;;;;;;8.17;4.03;;;19.60;65.20;;;;;;5038317;28;20487;-57
2022/10/29 04:48:19;;;;;;;14.73;4.70;;;19.70;65.70;;;;;;5041362;28;20448;-57
2022/10/29 04:50:44;;;;;;;7.67;4.17;;;19.70;65.50;;;;;;5048991;28;20526;-57
2022/10/29 04:53:10;;;;;;;8.53;4.83;;;19.70;65.10;;;;;;5044474;28;20545;-57
2022/10/29 04:55:37;;;;;;;7.97;4.20;;;19.80;65.10;;;;;;5044520;28;20279;-57
2022/10/29 04:58:04;;;;;;;11.63;4.60;;;19.90;64.40;;;;;;5040688;28;20562;-57
2022/10/29 05:00:30;;;;;;;6.47;4.40;;;19.80;64.30;;;;;;5042102;28;20534;-57
2022/10/29 05:02:56;;;;;;;5.40;4.10;;;19.90;64.60;;;;;;5045284;28;20479;-57
2022/10/29 05:05:22;;;;;;;9.53;4.47;;;19.90;64.50;;;;;;5047183;28;20435;-57
2022/10/29 05:07:48;;;;;;;5.80;4.70;;;19.90;64.10;;;;;;5044312;28;20223;-57
2022/10/29 05:10:14;;;;;;;6.20;4.30;;;19.90;64.00;;;;;;5048945;28;20224;-57
2022/10/29 05:12:40;;;;;;;7.60;4.50;;;20.00;63.70;;;;;;5042764;28;20197;-58
2022/10/29 05:15:06;;;;;;;7.17;4.83;;;19.90;64.00;;;;;;5024603;28;20454;-57
2022/10/29 05:17:36;;;;;;;8.60;4.60;;;20.10;63.50;;;;;;5040009;28;20200;-57
2022/10/29 05:20:02;;;;;;;12.17;5.20;;;20.20;62.40;;;;;;5041207;28;20512;-57
2022/10/29 05:22:28;;;;;;;10.23;4.83;;;20.20;61.70;;;;;;5039240;28;20447;-57
2022/10/29 05:24:55;;;;;;;6.17;4.10;;;20.10;62.20;;;;;;5021329;28;20228;-59
2022/10/29 05:27:20;;;;;;;8.80;4.50;;;19.90;62.40;;;;;;5039142;28;20283;-58
2022/10/29 05:29:46;;;;;;;11.23;4.60;;;19.50;63.30;;;;;;5048755;28;21338;-57
2022/10/29 05:32:11;;;;;;;12.87;5.07;;;19.40;64.60;;;;;;5042665;28;20246;-58
2022/10/29 05:34:37;;;;;;;10.60;5.23;;;19.30;64.30;;;;;;5038880;28;20204;-58
2022/10/29 05:37:02;;;;;;;7.17;5.70;;;19.20;64.40;;;;;;5047603;28;20224;-57
2022/10/29 05:39:28;;;;;;;6.10;4.90;;;18.90;65.30;;;;;;5044392;28;20223;-57
2022/10/29 05:41:53;;;;;;;8.27;4.60;;;18.80;66.70;;;;;;5044738;28;20199;-57
2022/10/29 05:44:19;;;;;;;9.33;4.87;;;19.00;65.50;;;;;;5053181;28;20228;-57
2022/10/29 05:46:48;;;;;;;13.53;5.30;;;19.10;65.20;;;;;;5049844;28;20273;-58
2022/10/29 05:49:13;;;;;;;8.77;5.57;;;19.20;64.00;;;;;;5050823;28;20208;-57
2022/10/29 05:51:39;;;;;;;9.13;5.10;;;19.30;63.30;;;;;;5045098;28;20448;-58
2022/10/29 05:54:04;;;;;;;11.37;5.13;;;19.20;63.60;;;;;;5045521;28;20232;-58
2022/10/29 05:56:30;;;;;;;13.50;4.80;;;19.20;63.40;;;;;;5050796;28;20185;-57
2022/10/29 05:58:56;;;;;;;5.07;4.50;;;19.30;63.50;;;;;;5050988;28;20199;-57
2022/10/29 06:01:21;;;;;;;9.80;5.90;;;19.30;63.20;;;;;;5052531;28;20204;-58
2022/10/29 06:03:47;;;;;;;8.53;4.60;;;19.30;63.10;;;;;;5050840;28;20251;-57
2022/10/29 06:06:12;;;;;;;6.80;4.90;;;19.30;63.10;;;;;;5047163;28;20267;-57
2022/10/29 06:08:38;;;;;;;13.63;5.30;;;19.30;63.00;;;;;;5044698;28;20216;-57
2022/10/29 06:11:03;;;;;;;9.63;4.43;;;19.30;63.00;;;;;;5040001;28;20294;-58
2022/10/29 06:13:29;;;;;;;8.17;4.90;;;19.30;63.40;;;;;;5047911;28;20189;-57
2022/10/29 06:15:58;;;;;;;8.70;5.33;;;19.20;63.20;;;;;;5046171;28;20201;-57
2022/10/29 06:18:23;;;;;;;8.40;4.57;;;19.20;63.00;;;;;;5043728;28;20239;-58
2022/10/29 06:20:49;;;;;;;11.30;5.13;;;18.60;64.80;;;;;;5051138;28;20474;-57
2022/10/29 06:23:14;;;;;;;6.63;4.50;;;18.80;65.30;;;;;;5050436;28;20262;-58
2022/10/29 06:25:40;;;;;;;12.27;4.90;;;18.80;64.70;;;;;;5051166;28;20204;-57
2022/10/29 06:28:10;;;;;;;7.77;4.63;;;19.00;64.40;;;;;;5046207;28;20196;-57
2022/10/29 06:30:36;;;;;;;13.23;5.63;;;19.00;64.10;;;;;;5045029;28;20192;-58
2022/10/29 06:33:03;;;;;;;11.20;5.40;;;19.10;63.70;;;;;;5048656;28;20442;-58
2022/10/29 06:35:29;;;;;;;8.90;4.73;;;19.10;63.60;;;;;;5048236;28;20457;-57
2022/10/29 06:37:55;;;;;;;7.57;5.17;;;19.20;63.60;;;;;;5046047;28;20528;-58
2022/10/29 06:40:21;;;;;;;10.90;5.33;;;19.10;63.40;;;;;;5050457;28;20935;-57
2022/10/29 06:42:46;;;;;;;7.63;4.83;;;18.90;64.10;;;;;;5026449;28;20284;-57
2022/10/29 06:45:12;;;;;;;7.47;5.03;;;18.70;65.30;;;;;;5044694;28;20197;-58
2022/10/29 06:47:39;;;;;;;16.67;5.57;;;18.60;66.20;;;;;;5052245;28;20189;-57
2022/10/29 06:50:06;;;;;;;12.70;5.80;;;18.70;66.00;;;;;;5052160;28;20201;-57
2022/10/29 06:52:32;;;;;;;8.63;4.37;;;18.70;66.00;;;;;;5052774;28;20450;-57
2022/10/29 06:54:57;;;;;;;10.87;4.97;;;18.60;65.80;;;;;;5048506;28;20787;-58
2022/10/29 06:57:23;;;;;;;9.20;5.30;;;18.50;67.00;;;;;;5041333;28;20501;-58
2022/10/29 06:59:49;;;;;;;10.07;5.47;;;18.60;66.60;;;;;;5053353;28;20191;-57
2022/10/29 07:02:17;;;;;;;13.97;5.33;;;18.40;67.00;;;;;;5056321;28;20246;-57
2022/10/29 07:04:43;;;;;;;6.53;5.10;;;18.20;67.90;;;;;;5051290;28;20307;-57
2022/10/29 07:07:08;;;;;;;10.13;4.90;;;18.20;68.40;;;;;;5052555;28;20514;-58
2022/10/29 07:09:34;;;;;;;7.73;5.33;;;18.20;68.60;;;;;;5052244;28;20258;-58
2022/10/29 07:11:59;;;;;;;8.13;5.13;;;18.30;68.40;;;;;;5053075;28;20200;-58
2022/10/29 07:14:25;;;;;;;8.90;4.80;;;18.50;68.40;;;;;;5050810;28;20249;-57
2022/10/29 07:16:51;;;;;;;11.57;5.30;;;18.70;67.10;;;;;;5036396;28;20220;-57
2022/10/29 07:19:17;;;;;;;10.03;5.30;;;18.80;66.90;;;;;;5032575;28;20200;-57
2022/10/29 07:21:42;;;;;;;7.97;5.67;;;18.90;66.30;;;;;;5032966;28;20428;-57
2022/10/29 07:24:08;;;;;;;7.43;5.23;;;19.10;65.80;;;;;;5032161;28;20220;-57
2022/10/29 07:26:35;;;;;;;10.87;4.50;;;19.10;65.90;;;;;;5054152;28;20246;-57
2022/10/29 07:29:00;;;;;;;16.10;5.23;;;19.20;65.50;;;;;;5052222;28;20184;-58
2022/10/29 07:31:28;;;;;;;11.23;4.80;;;19.50;65.00;;;;;;5052435;28;20418;-57
2022/10/29 07:33:54;;;;;;;9.23;4.77;;;19.70;64.50;;;;;;5052201;28;20189;-58
2022/10/29 07:36:19;;;;;;;9.30;4.67;;;19.90;64.10;;;;;;5049038;28;21010;-58
2022/10/29 07:38:46;;;;;;;10.70;5.30;;;20.00;63.50;;;;;;5050704;28;20197;-58
2022/10/29 07:41:11;;;;;;;13.53;4.90;;;20.10;62.70;;;;;;5039749;28;20322;-57
2022/10/29 07:43:37;;;;;;;9.80;5.00;;;20.20;62.50;;;;;;5047631;28;20583;-58
2022/10/29 07:46:02;;;;;;;10.87;4.77;;;20.30;62.50;;;;;;5051471;28;20191;-57
2022/10/29 07:48:28;;;;;;;11.27;5.60;;;20.40;62.30;;;;;;5050474;28;20607;-58
2022/10/29 07:51:00;;;;;;;6.47;4.30;;;20.50;62.00;;;;;;5051396;28;20189;-57
2022/10/29 07:53:26;;;;;;;9.27;4.73;;;20.60;61.70;;;;;;5048229;28;20594;-58
2022/10/29 07:55:53;;;;;;;9.57;5.20;;;20.70;61.40;;;;;;5051353;28;20518;-57
2022/10/29 07:58:19;;;;;;;10.17;4.43;;;20.80;61.30;;;;;;5050406;28;20184;-58
2022/10/29 08:00:44;;;;;;;13.73;5.70;;;20.80;60.80;;;;;;5050658;28;20431;-57
2022/10/29 08:03:11;;;;;;;8.53;4.87;;;20.90;61.90;;;;;;5049253;28;20224;-57
2022/10/29 08:05:38;;;;;;;8.30;6.77;;;21.10;61.20;;;;;;5044311;28;20189;-59
2022/10/29 08:08:05;;;;;;;8.63;5.60;;;21.20;61.30;;;;;;5045456;28;20449;-57
2022/10/29 08:10:32;;;;;;;10.80;5.50;;;21.20;61.00;;;;;;5044841;28;20496;-57
2022/10/29 08:12:59;;;;;;;12.00;5.10;;;21.20;61.00;;;;;;5043609;28;20452;-56
2022/10/29 08:15:26;;;;;;;6.70;4.60;;;21.20;61.40;;;;;;5043683;28;20455;-57
2022/10/29 08:17:52;;;;;;;9.83;5.20;;;21.20;61.80;;;;;;5043164;28;20454;-57
2022/10/29 08:20:19;;;;;;;11.33;5.30;;;21.20;61.80;;;;;;5049857;28;20808;-56
2022/10/29 08:22:45;;;;;;;7.93;5.47;;;21.30;61.50;;;;;;5045387;28;20435;-56
2022/10/29 08:25:11;;;;;;;8.23;5.77;;;21.30;60.80;;;;;;5045875;28;20446;-57
2022/10/29 08:27:37;;;;;;;9.53;5.50;;;21.20;60.90;;;;;;5048319;28;20197;-57
2022/10/29 08:30:07;;;;;;;11.53;6.00;;;21.40;60.90;;;;;;5047554;28;20454;-57
2022/10/29 08:32:32;;;;;;;8.20;5.83;;;21.50;60.70;;;;;;5045841;28;20220;-57
2022/10/29 08:34:58;;;;;;;9.30;5.17;;;21.70;60.50;;;;;;5045109;28;20470;-57
2022/10/29 08:37:23;;;;;;;9.10;4.60;;;21.70;60.60;;;;;;5002391;28;1112747;-57
2022/10/29 08:39:49;;;;;;;9.00;4.53;;;21.60;60.10;;;;;;5049985;28;20189;-57
2022/10/29 08:42:26;;;;;;;12.40;5.00;;;21.70;59.50;;;;;;5046394;28;20209;-57
2022/10/29 08:45:22;;;;;;;4.90;4.40;;;21.80;59.40;;;;;;5046670;28;20231;-57
2022/10/29 08:48:05;;;;;;;11.70;5.80;;;21.90;59.30;;;;;;5042143;28;20439;-57
2022/10/29 08:50:39;;;;;;;6.20;4.33;;;21.80;59.10;;;;;;5046288;28;20439;-57
2022/10/29 08:53:16;;;;;;;7.50;4.30;;;22.00;58.90;;;;;;5045174;28;20448;-57
2022/10/29 08:55:43;;;;;;;7.37;4.60;;;22.10;58.60;;;;;;5042790;28;20439;-57
2022/10/29 08:58:34;;;;;;;10.90;4.90;;;22.20;58.60;;;;;;5045614;28;20526;-57
2022/10/29 09:01:00;;;;;;;9.80;4.23;;;22.30;58.30;;;;;;5041097;28;20418;-58
2022/10/29 09:03:28;;;;;;;7.70;4.67;;;22.40;58.00;;;;;;5044643;28;20500;-57
2022/10/29 09:06:09;;;;;;;6.07;3.60;;;22.50;57.80;;;;;;5038837;28;20196;-57
2022/10/29 09:08:46;;;;;;;7.33;3.80;;;22.60;57.80;;;;;;5045183;28;20560;-57
2022/10/29 09:11:49;;;;;;;13.27;5.10;;;22.60;57.20;;;;;;5044347;28;21007;-57
2022/10/29 09:14:41;;;;;;;8.37;4.60;;;22.70;57.30;;;;;;5047095;28;20911;-57
2022/10/29 09:17:07;;;;;;;8.50;4.13;;;22.80;57.00;;;;;;5040406;28;20802;-57
2022/10/29 09:19:51;;;;;;;7.90;4.17;;;22.90;57.00;;;;;;5044809;28;20443;-57
2022/10/29 09:22:31;;;;;;;6.30;3.90;;;23.10;56.60;;;;;;5043892;28;21069;-57
2022/10/29 09:25:03;;;;;;;13.40;4.40;;;23.20;56.20;;;;;;5043729;28;20494;-57
2022/10/29 09:27:58;;;;;;;6.67;3.80;;;23.40;56.10;;;;;;5045278;28;20533;-57
2022/10/29 09:30:28;;;;;;;10.53;4.13;;;23.60;55.30;;;;;;5045306;28;20960;-57
2022/10/29 09:33:03;;;;;;;9.20;5.00;;;23.80;54.80;;;;;;5044486;28;20530;-57
2022/10/29 09:35:43;;;;;;;9.50;4.70;;;24.00;55.30;;;;;;5042322;28;20533;-57
2022/10/29 09:38:19;;;;;;;13.10;4.73;;;24.20;54.40;;;;;;5047262;28;20478;-58
2022/10/29 09:40:45;;;;;;;9.93;4.20;;;24.30;52.90;;;;;;5045248;28;20454;-58
2022/10/29 09:43:22;;;;;;;8.30;4.40;;;24.50;52.70;;;;;;5041722;28;20490;-57
2022/10/29 09:46:20;;;;;;;7.50;3.67;;;24.60;52.20;;;;;;5046675;28;20949;-57
2022/10/29 09:49:05;;;;;;;10.00;4.73;;;24.70;51.70;;;;;;5044651;28;21293;-58
2022/10/29 09:51:42;;;;;;;12.53;4.60;;;24.80;51.70;;;;;;5045694;28;20824;-57
2022/10/29 09:54:08;;;;;;;8.00;4.30;;;25.10;52.10;;;;;;5043415;28;20545;-57
2022/10/29 09:56:35;;;;;;;9.97;5.07;;;25.30;51.90;;;;;;5041212;28;20491;-57
2022/10/29 09:59:19;;;;;;;10.53;5.00;;;25.50;51.70;;;;;;5043240;28;20486;-57
2022/10/29 10:01:46;;;;;;;10.13;4.63;;;25.70;50.10;;;;;;5042247;28;20439;-57
2022/10/29 10:04:41;;;;;;;9.17;3.60;;;25.80;50.60;;;;;;5046214;28;20496;-57
2022/10/29 10:07:09;;;;;;;12.07;4.63;;;26.00;50.40;;;;;;5040472;28;20466;-57
2022/10/29 10:09:55;;;;;;;11.00;5.60;;;26.20;50.70;;;;;;5038984;28;20446;-58
2022/10/29 10:12:48;;;;;;;10.53;4.60;;;26.40;49.60;;;;;;5045437;28;20435;-57
2022/10/29 10:15:22;;;;;;;12.63;4.90;;;26.50;47.90;;;;;;5040110;28;20451;-57
2022/10/29 10:18:03;;;;;;;13.23;4.70;;;26.50;48.10;;;;;;5043781;28;20585;-57
2022/10/29 10:20:38;;;;;;;7.03;4.67;;;26.70;47.70;;;;;;5044658;28;20459;-57
2022/10/29 10:23:24;;;;;;;11.27;5.10;;;26.70;46.80;;;;;;5041199;28;20454;-57
2022/10/29 10:25:54;;;;;;;10.20;4.13;;;26.70;46.40;;;;;;5043262;28;20478;-57
2022/10/29 10:28:28;;;;;;;11.37;4.50;;;26.70;46.50;;;;;;5045936;28;20495;-57
2022/10/29 10:31:03;;;;;;;7.30;4.20;;;26.50;48.30;;;;;;5044732;28;20465;-58
2022/10/29 10:33:30;;;;;;;8.23;5.20;;;26.70;47.20;;;;;;5045311;28;20470;-58
2022/10/29 10:36:04;;;;;;;11.83;4.37;;;26.90;47.60;;;;;;5049032;28;20418;-56
2022/10/29 10:38:41;;;;;;;6.90;4.20;;;27.20;46.30;;;;;;5042473;28;20458;-57
2022/10/29 10:41:09;;;;;;;7.20;4.53;;;27.50;45.60;;;;;;5046850;28;20464;-57
2022/10/29 10:43:35;;;;;;;6.43;4.20;;;27.60;45.30;;;;;;5050227;28;20479;-57
2022/10/29 10:46:09;;;;;;;8.40;4.40;;;27.80;44.50;;;;;;5049846;28;20442;-57
2022/10/29 10:48:35;;;;;;;9.30;4.47;;;28.00;43.90;;;;;;5049453;28;20193;-57
2022/10/29 10:51:26;;;;;;;7.70;3.63;;;28.00;44.60;;;;;;5050148;28;20428;-57
2022/10/29 10:53:52;;;;;;;11.60;5.00;;;28.00;44.10;;;;;;5051123;28;20242;-57
2022/10/29 10:56:20;;;;;;;10.27;5.63;;;28.20;43.50;;;;;;5043203;28;20435;-57
2022/10/29 10:59:02;;;;;;;7.53;3.60;;;28.40;43.00;;;;;;5049377;28;20291;-57
2022/10/29 11:01:36;;;;;;;7.90;4.00;;;28.60;42.60;;;;;;5049126;28;20461;-57
2022/10/29 11:04:17;;;;;;;8.10;4.27;;;28.80;42.30;;;;;;5048913;28;20479;-57
2022/10/29 11:06:49;;;;;;;7.80;5.47;;;28.70;43.50;;;;;;5048480;28;20433;-57
2022/10/29 11:09:32;;;;;;;6.73;4.17;;;28.70;44.20;;;;;;5035020;28;20418;-57
2022/10/29 11:12:22;;;;;;;6.20;4.37;;;28.90;43.20;;;;;;5042171;28;20795;-57
2022/10/29 11:14:54;;;;;;;12.07;5.57;;;29.30;42.80;;;;;;5051605;28;20458;-57
2022/10/29 11:17:55;;;;;;;12.30;6.70;;;29.40;43.10;;;;;;5048525;28;20467;-57
2022/10/29 11:20:31;;;;;;;12.80;5.47;;;29.30;43.30;;;;;;5037048;28;20473;-57
2022/10/29 11:23:09;;;;;;;9.00;4.17;;;29.20;43.70;;;;;;5040064;28;20438;-58
2022/10/29 11:25:42;;;;;;;9.97;5.00;;;29.10;43.00;;;;;;5043723;28;20448;-57
2022/10/29 11:28:19;;;;;;;8.03;4.37;;;29.30;43.90;;;;;;5046467;28;20943;-57
2022/10/29 11:30:58;;;;;;;9.03;4.17;;;29.30;43.10;;;;;;5048998;28;20438;-58
2022/10/29 11:33:40;;;;;;;13.17;4.53;;;29.60;43.10;;;;;;5046563;28;20813;-58
2022/10/29 11:36:19;;;;;;;12.03;4.13;;;29.60;43.70;;;;;;5041486;28;21436;-57
2022/10/29 11:39:02;;;;;;;9.73;4.30;;;29.60;43.10;;;;;;5046921;28;20454;-57
2022/10/29 11:41:42;;;;;;;9.63;4.47;;;29.80;42.60;;;;;;5047367;28;20457;-57
2022/10/29 11:44:11;;;;;;;12.47;4.17;;;29.80;43.00;;;;;;5049098;28;20486;-57
2022/10/29 11:46:58;;;;;;;9.27;4.43;;;29.90;42.80;;;;;;5051956;28;20434;-57
2022/10/29 11:49:50;;;;;;;8.40;3.83;;;29.90;42.40;;;;;;5041921;28;20439;-57
2022/10/29 11:52:21;;;;;;;8.20;4.43;;;29.90;42.10;;;;;;5048949;28;20443;-57
2022/10/29 11:55:18;;;;;;;7.80;4.10;;;29.80;42.30;;;;;;5042754;28;20446;-57
2022/10/29 11:57:53;;;;;;;13.07;4.00;;;30.10;43.00;;;;;;5041625;28;20466;-57
2022/10/29 12:00:20;;;;;;;8.83;4.17;;;30.00;42.50;;;;;;5045302;28;20450;-57
2022/10/29 12:02:57;;;;;;;13.13;4.23;;;30.00;42.70;;;;;;5042141;28;20443;-57
2022/10/29 12:05:59;;;;;;;7.93;4.30;;;30.10;42.60;;;;;;5046793;28;20892;-57
2022/10/29 12:08:30;;;;;;;11.70;3.90;;;29.90;42.10;;;;;;5047834;28;20526;-57
2022/10/29 12:11:37;;;;;;;10.17;3.90;;;29.60;43.20;;;;;;5048113;28;20467;-56
2022/10/29 12:14:34;;;;;;;9.63;4.23;;;29.50;42.60;;;;;;4988319;28;20553;-57
2022/10/29 12:17:10;;;;;;;9.67;3.97;;;29.40;43.50;;;;;;4985646;28;20453;-57
2022/10/29 12:19:36;;;;;;;8.00;4.80;;;29.60;44.60;;;;;;5028327;28;20813;-57
2022/10/29 12:22:27;;;;;;;7.67;4.77;;;29.80;43.50;;;;;;5034329;28;20436;-57
2022/10/29 12:25:10;;;;;;;6.57;4.30;;;30.00;42.80;;;;;;5041380;28;20220;-57
2022/10/29 12:27:47;;;;;;;10.13;4.53;;;30.30;42.80;;;;;;5048608;28;20447;-56
2022/10/29 12:30:16;;;;;;;11.30;4.37;;;30.60;42.00;;;;;;5042826;28;20954;-56
2022/10/29 12:33:05;;;;;;;7.30;4.17;;;30.80;41.50;;;;;;5031560;28;20826;-56
2022/10/29 12:35:55;;;;;;;8.20;4.13;;;30.80;40.00;;;;;;5041223;28;20538;-57
2022/10/29 12:38:53;;;;;;;11.00;4.30;;;30.80;41.20;;;;;;5047741;28;20469;-56
2022/10/29 12:41:35;;;;;;;8.63;4.90;;;30.90;41.30;;;;;;5028507;28;20951;-56
2022/10/29 12:44:24;;;;;;;8.40;5.07;;;30.80;41.40;;;;;;5034455;28;20551;-57
2022/10/29 12:47:05;;;;;;;14.80;6.10;;;30.70;41.90;;;;;;5049925;28;20439;-56
2022/10/29 12:49:47;;;;;;;9.37;5.63;;;30.90;41.80;;;;;;5045922;28;20958;-57
2022/10/29 12:52:37;;;;;;;9.80;4.77;;;31.00;41.40;;;;;;5031722;28;20514;-56
2022/10/29 12:55:06;;;;;;;10.60;4.73;;;31.00;41.50;;;;;;5050324;28;20447;-56
2022/10/29 12:57:34;;;;;;;8.10;4.37;;;31.00;41.00;;;;;;5050373;28;20801;-57
2022/10/29 13:00:25;;;;;;;12.60;5.40;;;30.90;41.40;;;;;;5033170;28;20474;-56
2022/10/29 13:02:51;;;;;;;12.37;5.10;;;30.90;41.90;;;;;;5035171;28;20508;-57